createdAt,value
2019-05-14T00:00:52.256Z,0.80
2019-05-14T00:05:51.493Z,0.40
2019-05-14T00:08:19.326Z,0.93
2019-05-14T00:10:47.525Z,0.70
2019-05-14T00:13:15.632Z,0.42
2019-05-14T00:15:43.883Z,0.70
2019-05-14T00:18:12.008Z,0.50
2019-05-14T00:20:41.968Z,0.40
2019-05-14T00:23:11.830Z,0.72
2019-05-14T00:25:41.881Z,0.40
2019-05-14T00:28:11.786Z,0.70
2019-05-14T00:30:42.098Z,0.40
2019-05-14T00:33:11.575Z,0.70
2019-05-14T00:35:41.362Z,0.55
2019-05-14T00:38:11.748Z,0.82
2019-05-14T00:40:41.799Z,0.60
2019-05-14T00:43:11.306Z,0.40
2019-05-14T00:45:41.629Z,0.50
2019-05-14T00:48:09.227Z,0.70
2019-05-14T00:50:37.493Z,0.60
2019-05-14T00:53:05.655Z,0.80
2019-05-14T00:55:33.739Z,0.70
2019-05-14T00:58:02.493Z,0.60
2019-05-14T01:00:31.341Z,0.53
2019-05-14T01:03:01.802Z,1.10
2019-05-14T01:05:29.433Z,0.90
2019-05-14T01:07:57.549Z,0.75
2019-05-14T01:10:25.790Z,1.02
2019-05-14T01:12:53.943Z,0.70
2019-05-14T01:15:22.050Z,0.80
2019-05-14T01:17:51.615Z,0.68
2019-05-14T01:20:21.243Z,0.43
2019-05-14T01:22:51.422Z,0.50
2019-05-14T01:25:19.491Z,0.60
2019-05-14T01:27:47.605Z,0.68
2019-05-14T01:30:15.763Z,0.65
2019-05-14T01:32:43.947Z,1.20
2019-05-14T01:35:12.260Z,0.45
2019-05-14T01:37:41.632Z,0.55
2019-05-14T01:40:11.412Z,0.90
2019-05-14T01:42:41.649Z,0.65
2019-05-14T01:45:23.467Z,0.62
2019-05-14T01:47:41.453Z,0.60
2019-05-14T01:50:11.317Z,0.60
2019-05-14T01:52:41.624Z,0.68
2019-05-14T01:55:11.410Z,1.02
2019-05-14T01:57:39.522Z,0.80
2019-05-14T02:00:08.842Z,1.10
2019-05-14T02:02:37.057Z,0.70
2019-05-14T02:05:05.477Z,0.62
2019-05-14T02:07:33.603Z,1.20
2019-05-14T02:10:01.694Z,0.60
2019-05-14T02:12:31.568Z,1.07
2019-05-14T02:15:01.878Z,0.80
2019-05-14T02:17:31.694Z,0.57
2019-05-14T02:20:01.860Z,0.42
2019-05-14T02:22:31.905Z,0.40
2019-05-14T02:24:59.461Z,0.98
2019-05-14T02:27:27.564Z,0.80
2019-05-14T02:29:55.830Z,0.82
2019-05-14T02:32:23.969Z,0.70
2019-05-14T02:34:52.414Z,1.15
2019-05-14T02:37:20.693Z,0.80
2019-05-14T02:39:50.245Z,0.90
2019-05-14T02:42:19.703Z,0.68
2019-05-14T02:44:49.195Z,0.40
2019-05-14T02:47:19.494Z,0.95
2019-05-14T02:49:50.253Z,0.70
2019-05-14T02:52:20.466Z,0.90
2019-05-14T02:54:49.540Z,0.98
2019-05-14T02:57:19.726Z,0.95
2019-05-14T02:59:49.883Z,0.57
2019-05-14T03:02:18.780Z,0.53
2019-05-14T03:04:49.544Z,0.70
2019-05-14T03:07:19.382Z,0.93
2019-05-14T03:09:46.330Z,1.10
2019-05-14T03:12:14.563Z,0.60
2019-05-14T03:14:42.913Z,0.70
2019-05-14T03:17:11.169Z,1.15
2019-05-14T03:19:40.708Z,1.00
2019-05-14T03:22:10.315Z,0.80
2019-05-14T03:24:39.851Z,1.32
2019-05-14T03:27:09.607Z,0.65
2019-05-14T03:29:39.709Z,1.17
2019-05-14T03:32:13.090Z,0.65
2019-05-14T03:34:43.139Z,0.60
2019-05-14T03:37:12.751Z,1.30
2019-05-14T03:39:39.654Z,0.93
2019-05-14T03:42:09.393Z,1.02
2019-05-14T03:44:39.904Z,0.55
2019-05-14T03:47:10.333Z,1.32
2019-05-14T03:49:39.741Z,0.80
2019-05-14T03:52:09.545Z,1.00
2019-05-14T03:54:40.256Z,0.90
2019-05-14T03:57:09.522Z,0.70
2019-05-14T03:59:40.332Z,0.75
2019-05-14T04:02:09.694Z,0.60
2019-05-14T04:04:39.417Z,0.65
2019-05-14T04:07:09.976Z,1.25
2019-05-14T04:09:40.104Z,0.80
2019-05-14T04:12:10.305Z,0.85
2019-05-14T04:14:40.543Z,0.98
2019-05-14T04:17:15.525Z,0.60
2019-05-14T04:19:43.383Z,0.90
2019-05-14T04:22:14.341Z,1.00
2019-05-14T04:24:43.743Z,0.80
2019-05-14T04:27:13.783Z,1.07
2019-05-14T04:29:44.464Z,1.27
2019-05-14T04:32:14.283Z,0.72
2019-05-14T04:34:42.469Z,1.02
2019-05-14T04:37:12.387Z,1.20
2019-05-14T04:39:40.534Z,1.47
2019-05-14T04:42:09.793Z,1.65
2019-05-14T04:44:40.376Z,1.50
2019-05-14T04:47:22.554Z,1.40
2019-05-14T04:49:39.794Z,1.75
2019-05-14T04:52:10.090Z,1.82
2019-05-14T04:54:39.449Z,1.90
2019-05-14T04:57:10.161Z,1.60
2019-05-14T04:59:39.689Z,2.12
2019-05-14T05:02:09.685Z,1.52
2019-05-14T05:04:41.245Z,1.95
2019-05-14T05:07:09.921Z,1.92
2019-05-14T05:09:39.795Z,1.95
2019-05-14T05:12:09.083Z,2.83
2019-05-14T05:14:38.935Z,2.40
2019-05-14T05:17:09.205Z,2.77
2019-05-14T05:19:39.373Z,1.92
2019-05-14T05:22:08.022Z,1.80
2019-05-14T05:24:38.101Z,1.80
2019-05-14T05:27:06.386Z,2.30
2019-05-14T05:29:35.161Z,1.90
2019-05-14T05:32:03.279Z,2.30
2019-05-14T05:34:31.413Z,2.35
2019-05-14T05:37:19.114Z,2.22
2019-05-14T05:39:49.139Z,2.17
2019-05-14T05:42:18.810Z,2.80
2019-05-14T05:44:48.362Z,2.60
2019-05-14T05:47:18.297Z,2.67
2019-05-14T05:49:48.840Z,2.40
2019-05-14T05:52:18.917Z,3.08
2019-05-14T05:54:48.780Z,2.77
2019-05-14T05:57:18.588Z,3.47
2019-05-14T05:59:48.508Z,2.98
2019-05-14T06:02:18.392Z,3.00
2019-05-14T06:04:48.061Z,3.52
2019-05-14T06:07:18.283Z,3.05
2019-05-14T06:09:48.128Z,3.70
2019-05-14T06:12:15.847Z,3.20
2019-05-14T06:14:43.994Z,3.22
2019-05-14T06:17:12.123Z,3.08
2019-05-14T06:19:40.248Z,3.22
2019-05-14T06:22:09.754Z,2.80
2019-05-14T06:24:38.985Z,3.00
2019-05-14T06:27:09.450Z,2.90
2019-05-14T06:29:38.274Z,3.25
2019-05-14T06:32:09.079Z,2.20
2019-05-14T06:34:38.223Z,1.37
2019-05-14T06:37:08.444Z,2.52
2019-05-14T06:39:38.845Z,1.98
2019-05-14T06:42:08.742Z,1.77
2019-05-14T06:44:38.382Z,2.08
2019-05-14T06:47:06.093Z,2.30
2019-05-14T06:49:34.222Z,1.57
2019-05-14T06:52:02.309Z,1.65
2019-05-14T06:54:30.444Z,2.25
2019-05-14T06:56:58.781Z,2.20
2019-05-14T06:59:28.789Z,2.45
2019-05-14T07:01:58.071Z,2.10
2019-05-14T07:04:28.654Z,2.10
2019-05-14T07:06:58.864Z,1.15
2019-05-14T07:09:28.755Z,1.10
2019-05-14T07:11:58.500Z,0.98
2019-05-14T07:14:28.291Z,1.20
2019-05-14T07:16:58.586Z,0.68
2019-05-14T07:19:25.936Z,1.22
2019-05-14T07:21:54.136Z,1.57
2019-05-14T07:24:22.338Z,1.10
2019-05-14T07:26:50.607Z,0.98
2019-05-14T07:29:18.786Z,1.10
2019-05-14T07:31:48.971Z,0.90
2019-05-14T07:34:19.008Z,1.15
2019-05-14T07:36:48.904Z,1.17
2019-05-14T07:39:18.563Z,1.00
2019-05-14T07:41:48.398Z,1.00
2019-05-14T07:44:18.265Z,1.07
2019-05-14T07:46:48.276Z,1.27
2019-05-14T07:49:18.311Z,1.25
2019-05-14T07:51:48.009Z,0.80
2019-05-14T07:54:16.444Z,0.70
2019-05-14T07:56:44.608Z,0.57
2019-05-14T07:59:12.822Z,0.85
2019-05-14T08:01:40.958Z,1.20
2019-05-14T08:04:10.982Z,1.15
2019-05-14T08:06:39.541Z,0.70
2019-05-14T08:09:09.137Z,0.80
2019-05-14T08:11:38.743Z,1.17
2019-05-14T08:14:09.050Z,1.27
2019-05-14T08:16:38.146Z,0.98
2019-05-14T08:19:20.912Z,0.95
2019-05-14T08:21:38.564Z,0.80
2019-05-14T08:24:08.829Z,0.85
2019-05-14T08:26:38.231Z,0.60
2019-05-14T08:29:08.510Z,0.60
2019-05-14T08:31:38.279Z,0.95
2019-05-14T08:34:06.685Z,0.50
2019-05-14T08:36:37.821Z,0.42
2019-05-14T08:39:08.851Z,0.60
2019-05-14T08:41:38.376Z,0.72
2019-05-14T08:44:08.578Z,0.65
2019-05-14T08:46:38.689Z,0.50
2019-05-14T08:49:08.800Z,0.78
2019-05-14T08:51:38.862Z,0.62
2019-05-14T08:54:08.204Z,0.57
2019-05-14T08:56:38.754Z,0.40
2019-05-14T08:59:08.511Z,0.30
2019-05-14T09:01:38.530Z,0.30
2019-05-14T09:04:08.787Z,0.70
2019-05-14T09:09:05.065Z,0.30
2019-05-14T09:11:36.360Z,0.47
2019-05-14T09:14:03.268Z,0.70
2019-05-14T09:16:43.164Z,0.40
2019-05-14T09:19:01.523Z,0.33
2019-05-14T09:21:29.861Z,0.47
2019-05-14T09:23:58.715Z,0.28
2019-05-14T09:26:28.462Z,0.60
2019-05-14T09:28:58.657Z,0.47
2019-05-14T09:31:29.449Z,0.50
2019-05-14T09:33:58.494Z,0.65
2019-05-14T09:36:28.758Z,0.60
2019-05-14T09:38:58.388Z,0.47
2019-05-14T09:43:55.112Z,0.40
2019-05-14T09:46:23.244Z,0.70
2019-05-14T09:48:51.363Z,0.40
2019-05-14T09:51:19.559Z,0.60
2019-05-14T09:53:48.903Z,0.40
2019-05-14T09:56:18.617Z,0.33
2019-05-14T09:58:49.244Z,0.25
2019-05-14T10:01:19.338Z,0.30
2019-05-14T10:03:49.347Z,0.42
2019-05-14T10:06:16.736Z,0.40
2019-05-14T10:08:44.848Z,0.17
2019-05-14T10:11:12.988Z,0.30
2019-05-14T10:13:41.162Z,0.20
2019-05-14T10:16:09.700Z,0.50
2019-05-14T10:18:38.148Z,0.30
2019-05-14T10:21:08.624Z,0.35
2019-05-14T10:26:03.470Z,0.40
2019-05-14T10:28:31.582Z,0.30
2019-05-14T10:31:03.560Z,0.30
2019-05-14T10:35:58.863Z,0.37
2019-05-14T10:38:29.542Z,0.33
2019-05-14T10:43:28.767Z,0.20
2019-05-14T10:45:58.065Z,0.40
2019-05-14T10:48:26.178Z,0.28
2019-05-14T10:50:59.958Z,0.20
2019-05-14T10:55:51.461Z,0.65
2019-05-14T10:58:20.301Z,0.50
2019-05-14T11:00:49.498Z,0.53
2019-05-14T11:03:18.604Z,0.20
2019-05-14T11:05:48.131Z,0.50
2019-05-14T11:08:18.720Z,0.55
2019-05-14T11:10:46.234Z,0.30
2019-05-14T11:13:14.407Z,0.55
2019-05-14T11:15:42.536Z,0.55
2019-05-14T11:18:10.634Z,0.37
2019-05-14T11:20:42.173Z,0.50
2019-05-14T11:23:09.071Z,0.30
2019-05-14T11:25:38.315Z,0.30
2019-05-14T11:28:06.730Z,0.37
2019-05-14T11:30:34.902Z,0.20
2019-05-14T11:33:03.053Z,0.30
2019-05-14T11:35:31.189Z,0.20
2019-05-14T11:37:59.392Z,0.23
2019-05-14T11:40:29.402Z,0.20
2019-05-14T11:42:59.187Z,0.10
2019-05-14T11:45:27.328Z,0.42
2019-05-14T11:47:55.465Z,0.30
2019-05-14T11:50:23.665Z,0.10
2019-05-14T11:52:51.863Z,0.20
2019-05-14T11:55:20.062Z,0.37
2019-05-14T11:57:48.622Z,0.23
2019-05-14T12:00:19.612Z,0.40
2019-05-14T12:02:47.584Z,0.40
2019-05-14T12:05:18.729Z,0.30
2019-05-14T12:07:45.873Z,0.20
2019-05-14T12:10:14.808Z,0.28
2019-05-14T12:12:43.061Z,0.10
2019-05-14T12:15:11.682Z,0.30
2019-05-14T12:17:39.928Z,0.30
2019-05-14T12:20:08.363Z,0.23
2019-05-14T12:22:39.031Z,0.28
2019-05-14T12:25:08.168Z,0.30
2019-05-14T12:27:38.766Z,0.37
2019-05-14T12:30:09.646Z,0.28
2019-05-14T12:32:39.630Z,0.30
2019-05-14T12:35:08.628Z,0.30
2019-05-14T12:40:08.557Z,0.20
2019-05-14T12:42:38.853Z,0.30
2019-05-14T12:45:09.150Z,0.40
2019-05-14T12:47:38.466Z,0.30
2019-05-14T12:50:09.383Z,0.33
2019-05-14T12:52:38.957Z,0.37
2019-05-14T12:55:09.105Z,0.33
2019-05-14T12:57:39.392Z,0.30
2019-05-14T13:00:08.941Z,0.42
2019-05-14T13:02:37.350Z,0.30
2019-05-14T13:05:05.545Z,0.30
2019-05-14T13:07:33.687Z,0.33
2019-05-14T13:10:01.878Z,0.30
2019-05-14T13:12:30.011Z,0.40
2019-05-14T13:14:58.173Z,0.30
2019-05-14T13:17:28.135Z,0.20
2019-05-14T13:19:56.399Z,0.28
2019-05-14T13:22:38.426Z,0.40
2019-05-14T13:24:54.384Z,0.20
2019-05-14T13:27:22.518Z,0.30
2019-05-14T13:29:50.693Z,0.33
2019-05-14T13:32:19.524Z,0.20
2019-05-14T13:34:48.652Z,0.35
2019-05-14T13:37:18.001Z,0.30
2019-05-14T13:39:52.028Z,0.40
2019-05-14T13:42:18.533Z,0.50
2019-05-14T13:44:45.982Z,0.30
2019-05-14T13:47:14.126Z,0.20
2019-05-14T13:49:42.404Z,0.20
2019-05-14T13:52:10.530Z,0.30
2019-05-14T13:54:39.406Z,0.17
2019-05-14T13:57:09.073Z,0.25
2019-05-14T13:59:43.974Z,0.20
2019-05-14T14:02:09.892Z,0.20
2019-05-14T14:04:38.212Z,0.20
2019-05-14T14:07:09.100Z,0.20
2019-05-14T14:09:35.341Z,0.30
2019-05-14T14:12:03.416Z,0.17
2019-05-14T14:14:31.621Z,0.35
2019-05-14T14:16:59.853Z,0.40
2019-05-14T14:19:28.316Z,0.35
2019-05-14T14:21:59.134Z,0.30
2019-05-14T14:24:28.863Z,0.20
2019-05-14T14:26:58.370Z,0.10
2019-05-14T14:29:26.162Z,0.40
2019-05-14T14:31:54.321Z,0.30
2019-05-14T14:34:22.522Z,0.20
2019-05-14T14:36:54.873Z,0.40
2019-05-14T14:39:20.610Z,0.17
2019-05-14T14:41:49.151Z,0.40
2019-05-14T14:44:19.101Z,0.33
2019-05-14T14:46:48.350Z,0.10
2019-05-14T14:49:18.752Z,0.30
2019-05-14T14:51:48.941Z,0.17
2019-05-14T14:54:16.568Z,0.25
2019-05-14T14:56:44.866Z,0.20
2019-05-14T14:59:13.119Z,0.30
2019-05-14T15:01:41.278Z,0.40
2019-05-14T15:04:13.527Z,0.20
2019-05-14T15:06:40.004Z,0.23
2019-05-14T15:09:09.764Z,0.33
2019-05-14T15:11:39.717Z,0.40
2019-05-14T15:14:08.525Z,0.40
2019-05-14T15:16:39.088Z,0.30
2019-05-14T15:19:09.231Z,0.25
2019-05-14T15:21:36.567Z,0.30
2019-05-14T15:24:13.817Z,0.20
2019-05-14T15:26:34.646Z,0.30
2019-05-14T15:29:02.929Z,0.20
2019-05-14T15:31:31.125Z,0.30
2019-05-14T15:33:59.600Z,0.10
2019-05-14T15:36:27.763Z,0.28
2019-05-14T15:38:55.883Z,0.30
2019-05-14T15:41:24.041Z,0.37
2019-05-14T15:43:52.318Z,0.20
2019-05-14T15:46:20.469Z,0.28
2019-05-14T15:48:48.930Z,0.40
2019-05-14T15:51:19.622Z,0.20
2019-05-14T15:54:06.475Z,0.20
2019-05-14T15:56:18.726Z,0.30
2019-05-14T15:58:47.040Z,0.55
2019-05-14T16:01:15.213Z,0.25
2019-05-14T16:03:43.296Z,0.25
2019-05-14T16:06:11.462Z,0.33
2019-05-14T16:08:40.381Z,0.20
2019-05-14T16:11:11.484Z,0.30
2019-05-14T16:13:39.816Z,0.23
2019-05-14T16:16:10.514Z,0.20
2019-05-14T16:18:38.607Z,0.28
2019-05-14T16:21:06.850Z,0.40
2019-05-14T16:23:34.994Z,0.20
2019-05-14T16:26:03.121Z,0.20
2019-05-14T16:28:31.426Z,0.10
2019-05-14T16:30:59.661Z,0.20
2019-05-14T16:33:29.145Z,0.30
2019-05-14T16:35:58.185Z,0.35
2019-05-14T16:38:28.511Z,0.25
2019-05-14T16:43:23.425Z,0.30
2019-05-14T16:45:51.633Z,0.50
2019-05-14T16:48:19.941Z,0.33
2019-05-14T16:50:48.883Z,0.10
2019-05-14T16:53:19.416Z,0.28
2019-05-14T16:58:14.298Z,0.40
2019-05-14T17:00:42.496Z,0.20
2019-05-14T17:03:10.586Z,0.30
2019-05-14T17:05:38.774Z,0.50
2019-05-14T17:08:09.933Z,0.40
2019-05-14T17:13:04.034Z,0.30
2019-05-14T17:15:32.252Z,0.17
2019-05-14T17:18:00.508Z,0.37
2019-05-14T17:20:28.683Z,0.28
2019-05-14T17:22:59.271Z,0.30
2019-05-14T17:27:55.586Z,0.40
2019-05-14T17:30:23.816Z,0.20
2019-05-14T17:32:52.011Z,0.53
2019-05-14T17:35:20.169Z,0.47
2019-05-14T17:37:48.534Z,0.60
2019-05-14T17:40:16.790Z,0.50
2019-05-14T17:42:44.983Z,0.40
2019-05-14T17:45:13.338Z,0.30
2019-05-14T17:47:41.513Z,0.20
2019-05-14T17:50:09.861Z,0.30
2019-05-14T17:52:42.913Z,0.15
2019-05-14T17:57:44.377Z,0.25
2019-05-14T18:00:09.489Z,0.13
2019-05-14T18:02:37.851Z,0.30
2019-05-14T18:05:09.501Z,0.35
2019-05-14T18:07:36.529Z,0.30
2019-05-14T18:10:05.308Z,0.30
2019-05-14T18:12:33.404Z,0.20
2019-05-14T18:15:01.583Z,0.13
2019-05-14T18:17:29.785Z,0.10
2019-05-14T18:19:58.843Z,0.40
2019-05-14T18:22:28.637Z,0.50
2019-05-14T18:24:59.194Z,0.30
2019-05-14T18:27:29.342Z,0.28
2019-05-14T18:29:59.113Z,0.40
2019-05-14T18:32:26.922Z,0.30
2019-05-14T18:34:55.035Z,0.30
2019-05-14T18:37:23.296Z,0.37
2019-05-14T18:39:51.687Z,0.30
2019-05-14T18:42:19.892Z,0.28
2019-05-14T18:44:49.778Z,0.30
2019-05-14T18:47:20.079Z,0.20
2019-05-14T18:49:48.621Z,0.23
2019-05-14T18:52:18.403Z,0.40
2019-05-14T18:54:48.350Z,0.50
2019-05-14T18:57:18.034Z,0.37
2019-05-14T18:59:49.116Z,0.40
2019-05-14T19:02:18.307Z,0.40
2019-05-14T19:04:48.289Z,0.35
2019-05-14T19:07:16.053Z,0.20
2019-05-14T19:09:44.394Z,0.23
2019-05-14T19:12:12.791Z,0.42
2019-05-14T19:14:40.939Z,0.30
2019-05-14T19:17:09.314Z,0.60
2019-05-14T19:19:38.648Z,0.68
2019-05-14T19:22:07.041Z,0.33
2019-05-14T19:24:35.311Z,0.72
2019-05-14T19:27:03.594Z,0.40
2019-05-14T19:29:31.773Z,0.68
2019-05-14T19:31:59.906Z,0.45
2019-05-14T19:34:28.766Z,0.40
2019-05-14T19:36:56.995Z,0.50
2019-05-14T19:39:25.180Z,0.50
2019-05-14T19:41:53.451Z,0.40
2019-05-14T19:44:21.733Z,0.80
2019-05-14T19:46:49.951Z,0.60
2019-05-14T19:49:18.511Z,0.55
2019-05-14T19:51:48.349Z,0.60
2019-05-14T19:54:19.528Z,0.60
2019-05-14T19:56:55.533Z,0.40
2019-05-14T19:59:18.306Z,0.60
2019-05-14T20:01:48.426Z,0.72
2019-05-14T20:04:18.257Z,1.15
2019-05-14T20:06:49.139Z,1.20
2019-05-14T20:09:17.920Z,1.00
2019-05-14T20:11:48.863Z,0.60
2019-05-14T20:14:16.031Z,1.52
2019-05-14T20:16:44.284Z,1.10
2019-05-14T20:19:12.499Z,1.60
2019-05-14T20:21:40.728Z,1.50
2019-05-14T20:24:08.910Z,1.25
2019-05-14T20:26:39.039Z,1.00
2019-05-14T20:29:08.828Z,1.02
2019-05-14T20:31:38.853Z,0.70
2019-05-14T20:34:08.442Z,0.75
2019-05-14T20:36:38.798Z,0.65
2019-05-14T20:39:08.675Z,0.88
2019-05-14T20:41:38.543Z,0.50
2019-05-14T20:44:06.861Z,1.25
2019-05-14T20:46:35.022Z,0.60
2019-05-14T20:49:03.187Z,0.60
2019-05-14T20:51:31.376Z,0.57
2019-05-14T20:53:59.754Z,0.53
2019-05-14T20:56:28.471Z,0.30
2019-05-14T20:58:58.926Z,0.78
2019-05-14T21:01:29.124Z,0.70
2019-05-14T21:03:59.275Z,1.27
2019-05-14T21:06:28.018Z,1.07
2019-05-14T21:08:58.377Z,1.40
2019-05-14T21:11:28.564Z,1.00
2019-05-14T21:13:58.130Z,1.40
2019-05-14T21:16:28.282Z,1.05
2019-05-14T21:18:59.059Z,1.20
2019-05-14T21:21:28.104Z,1.20
2019-05-14T21:23:58.497Z,1.15
2019-05-14T21:26:26.045Z,1.00
2019-05-14T21:28:54.317Z,1.12
2019-05-14T21:31:22.620Z,1.10
2019-05-14T21:33:50.779Z,1.30
2019-05-14T21:36:19.501Z,0.80
2019-05-14T21:38:49.126Z,0.75
2019-05-14T21:41:20.132Z,0.70
2019-05-14T21:43:49.276Z,1.30
2019-05-14T21:46:19.432Z,0.88
2019-05-14T21:48:47.913Z,0.70
2019-05-14T21:51:18.047Z,0.68
2019-05-14T21:53:48.219Z,0.60
2019-05-14T21:56:21.277Z,0.80
2019-05-14T21:58:48.034Z,0.57
2019-05-14T22:01:16.079Z,0.55
2019-05-14T22:03:44.363Z,0.50
2019-05-14T22:06:12.483Z,0.45
2019-05-14T22:08:40.736Z,0.40
2019-05-14T22:11:08.990Z,0.70
2019-05-14T22:13:38.126Z,0.50
2019-05-14T22:16:08.405Z,0.93
2019-05-14T22:18:38.650Z,0.60
2019-05-14T22:21:08.645Z,0.55
2019-05-14T22:23:38.531Z,0.60
2019-05-14T22:26:06.077Z,0.53
2019-05-14T22:28:34.229Z,0.50
2019-05-14T22:31:02.529Z,0.57
2019-05-14T22:33:30.666Z,0.62
2019-05-14T22:36:00.962Z,0.45
2019-05-14T22:38:29.492Z,0.50
2019-05-14T22:40:59.231Z,0.50
2019-05-14T22:43:28.825Z,0.62
2019-05-14T22:45:59.090Z,0.70
2019-05-14T22:48:27.036Z,0.50
2019-05-14T22:50:55.413Z,0.55
2019-05-14T22:53:23.603Z,0.57
2019-05-14T22:55:51.797Z,0.40
2019-05-14T22:58:25.542Z,0.65
2019-05-14T23:01:01.561Z,0.53
2019-05-14T23:03:21.169Z,0.50
2019-05-14T23:05:50.154Z,0.37
2019-05-14T23:08:18.548Z,0.40
2019-05-14T23:10:49.120Z,0.68
2019-05-14T23:13:18.599Z,0.47
2019-05-14T23:15:48.094Z,0.53
2019-05-14T23:18:18.107Z,0.30
2019-05-14T23:20:49.037Z,0.57
2019-05-14T23:23:18.525Z,0.50
2019-05-14T23:25:46.697Z,0.50
2019-05-14T23:28:14.844Z,0.60
2019-05-14T23:30:43.050Z,0.62
2019-05-14T23:33:11.212Z,0.53
2019-05-14T23:35:39.822Z,0.50
2019-05-14T23:38:08.487Z,0.50
2019-05-14T23:40:38.805Z,0.62
2019-05-14T23:43:07.242Z,0.47
2019-05-14T23:45:37.877Z,0.57
2019-05-14T23:48:05.355Z,0.53
2019-05-14T23:50:33.496Z,0.88
2019-05-14T23:53:01.635Z,0.60
2019-05-14T23:55:29.772Z,0.50
2019-05-14T23:57:58.653Z,0.60
